sensor_id;sensor_type;location;lat;lon;timestamp;pressure;altitude;pressure_sealevel;temperature;humidity
46087;BME280;31824;49.648;8.640;2023-11-21T00:02:03;99679.66;;;8.88;100.00
46087;BME280;31824;49.648;8.640;2023-11-21T00:05:07;99678.72;;;8.88;100.00
46087;BME280;31824;49.648;8.640;2023-11-21T00:08:11;99671.50;;;8.85;100.00
46087;BME280;31824;49.648;8.640;2023-11-21T00:11:14;99681.84;;;8.84;100.00
46087;BME280;31824;49.648;8.640;2023-11-21T00:14:16;99683.19;;;8.89;100.00
46087;BME280;31824;49.648;8.640;2023-11-21T00:17:18;99675.31;;;8.89;100.00
46087;BME280;31824;49.648;8.640;2023-11-21T00:20:21;99675.44;;;8.90;100.00
46087;BME280;31824;49.648;8.640;2023-11-21T00:23:23;99674.03;;;8.94;100.00
46087;BME280;31824;49.648;8.640;2023-11-21T00:26:26;99675.59;;;8.92;100.00
46087;BME280;31824;49.648;8.640;2023-11-21T00:29:35;99666.97;;;8.93;100.00
46087;BME280;31824;49.648;8.640;2023-11-21T00:32:38;99663.69;;;8.95;100.00
46087;BME280;31824;49.648;8.640;2023-11-21T00:35:40;99669.31;;;8.90;100.00
46087;BME280;31824;49.648;8.640;2023-11-21T00:38:41;99664.47;;;8.94;100.00
46087;BME280;31824;49.648;8.640;2023-11-21T00:41:45;99666.41;;;8.87;100.00
46087;BME280;31824;49.648;8.640;2023-11-21T00:44:46;99672.06;;;8.91;100.00
46087;BME280;31824;49.648;8.640;2023-11-21T00:47:48;99666.44;;;8.97;100.00
46087;BME280;31824;49.648;8.640;2023-11-21T00:50:50;99668.94;;;8.95;100.00
46087;BME280;31824;49.648;8.640;2023-11-21T00:53:51;99668.03;;;8.95;100.00
46087;BME280;31824;49.648;8.640;2023-11-21T00:56:55;99668.94;;;8.95;100.00
46087;BME280;31824;49.648;8.640;2023-11-21T00:59:56;99669.56;;;8.93;100.00
46087;BME280;31824;49.648;8.640;2023-11-21T01:02:58;99669.06;;;8.97;100.00
46087;BME280;31824;49.648;8.640;2023-11-21T01:06:00;99669.06;;;8.97;100.00
46087;BME280;31824;49.648;8.640;2023-11-21T01:09:03;99674.75;;;9.02;100.00
46087;BME280;31824;49.648;8.640;2023-11-21T01:12:11;99673.81;;;9.01;100.00
46087;BME280;31824;49.648;8.640;2023-11-21T01:15:14;99671.97;;;9.00;100.00
46087;BME280;31824;49.648;8.640;2023-11-21T01:18:15;99684.00;;;8.98;100.00
46087;BME280;31824;49.648;8.640;2023-11-21T01:21:17;99677.19;;;9.00;100.00
46087;BME280;31824;49.648;8.640;2023-11-21T01:24:19;99686.13;;;9.02;100.00
46087;BME280;31824;49.648;8.640;2023-11-21T01:27:22;99687.69;;;9.00;100.00
46087;BME280;31824;49.648;8.640;2023-11-21T01:30:24;99683.78;;;9.05;100.00
46087;BME280;31824;49.648;8.640;2023-11-21T01:33:27;99673.28;;;9.05;100.00
46087;BME280;31824;49.648;8.640;2023-11-21T01:36:32;99673.03;;;9.02;100.00
46087;BME280;31824;49.648;8.640;2023-11-21T01:39:34;99670.41;;;9.02;100.00
46087;BME280;31824;49.648;8.640;2023-11-21T01:42:37;99678.66;;;9.07;100.00
46087;BME280;31824;49.648;8.640;2023-11-21T01:45:39;99681.03;;;9.04;100.00
46087;BME280;31824;49.648;8.640;2023-11-21T01:48:40;99675.91;;;9.05;100.00
46087;BME280;31824;49.648;8.640;2023-11-21T01:51:46;99681.59;;;9.10;100.00
46087;BME280;31824;49.648;8.640;2023-11-21T01:54:50;99683.28;;;9.09;100.00
46087;BME280;31824;49.648;8.640;2023-11-21T01:57:54;99681.72;;;9.11;100.00
46087;BME280;31824;49.648;8.640;2023-11-21T02:00:56;99685.13;;;9.10;100.00
46087;BME280;31824;49.648;8.640;2023-11-21T02:03:57;99687.47;;;9.07;100.00
46087;BME280;31824;49.648;8.640;2023-11-21T02:07:00;99687.75;;;9.10;100.00
46087;BME280;31824;49.648;8.640;2023-11-21T02:10:02;99681.59;;;9.10;100.00
46087;BME280;31824;49.648;8.640;2023-11-21T02:13:05;99681.47;;;9.08;100.00
46087;BME280;31824;49.648;8.640;2023-11-21T02:16:08;99683.41;;;9.11;100.00
46087;BME280;31824;49.648;8.640;2023-11-21T02:19:10;99685.25;;;9.12;100.00
46087;BME280;31824;49.648;8.640;2023-11-21T02:22:15;99691.69;;;9.16;100.00
46087;BME280;31824;49.648;8.640;2023-11-21T02:25:19;99689.31;;;9.08;100.00
46087;BME280;31824;49.648;8.640;2023-11-21T02:28:21;99694.69;;;9.10;100.00
46087;BME280;31824;49.648;8.640;2023-11-21T02:31:27;99694.56;;;9.08;100.00
46087;BME280;31824;49.648;8.640;2023-11-21T02:34:29;99688.38;;;9.08;100.00
46087;BME280;31824;49.648;8.640;2023-11-21T02:37:31;99695.59;;;9.10;100.00
46087;BME280;31824;49.648;8.640;2023-11-21T02:40:34;99690.09;;;9.07;100.00
46087;BME280;31824;49.648;8.640;2023-11-21T02:43:36;99689.44;;;9.10;100.00
46087;BME280;31824;49.648;8.640;2023-11-21T02:46:40;99690.09;;;9.07;100.00
46087;BME280;31824;49.648;8.640;2023-11-21T02:49:42;99680.66;;;9.09;100.00
46087;BME280;31824;49.648;8.640;2023-11-21T02:52:44;99684.59;;;9.15;100.00
46087;BME280;31824;49.648;8.640;2023-11-21T02:55:47;99684.34;;;9.11;100.00
46087;BME280;31824;49.648;8.640;2023-11-21T02:58:49;99678.97;;;9.10;100.00
46087;BME280;31824;49.648;8.640;2023-11-21T03:01:51;99679.75;;;9.09;100.00
46087;BME280;31824;49.648;8.640;2023-11-21T03:04:53;99678.31;;;9.12;100.00
46087;BME280;31824;49.648;8.640;2023-11-21T03:07:55;99674.91;;;9.13;100.00
46087;BME280;31824;49.648;8.640;2023-11-21T03:10:58;99681.72;;;9.11;100.00
46087;BME280;31824;49.648;8.640;2023-11-21T03:14:00;99684.75;;;9.16;100.00
46087;BME280;31824;49.648;8.640;2023-11-21T03:17:02;99687.09;;;9.13;100.00
46087;BME280;31824;49.648;8.640;2023-11-21T03:20:07;99687.59;;;9.09;100.00
46087;BME280;31824;49.648;8.640;2023-11-21T03:23:12;99686.53;;;9.07;100.00
46087;BME280;31824;49.648;8.640;2023-11-21T03:26:16;99693.75;;;9.09;100.00
46087;BME280;31824;49.648;8.640;2023-11-21T03:29:18;99695.59;;;9.10;100.00
46087;BME280;31824;49.648;8.640;2023-11-21T03:32:20;99697.44;;;9.11;100.00
46087;BME280;31824;49.648;8.640;2023-11-21T03:35:21;99693.09;;;9.12;100.00
46087;BME280;31824;49.648;8.640;2023-11-21T03:38:23;99702.69;;;9.11;100.00
46087;BME280;31824;49.648;8.640;2023-11-21T03:41:26;99694.97;;;9.13;100.00
46087;BME280;31824;49.648;8.640;2023-11-21T03:44:28;99699.28;;;9.12;100.00
46087;BME280;31824;49.648;8.640;2023-11-21T03:47:30;99700.06;;;9.11;100.00
46087;BME280;31824;49.648;8.640;2023-11-21T03:50:31;99700.97;;;9.12;100.00
46087;BME280;31824;49.648;8.640;2023-11-21T03:53:34;99708.19;;;9.15;100.00
46087;BME280;31824;49.648;8.640;2023-11-21T03:56:38;99704.53;;;9.12;100.00
46087;BME280;31824;49.648;8.640;2023-11-21T03:59:41;99708.19;;;9.15;100.00
46087;BME280;31824;49.648;8.640;2023-11-21T04:02:43;99710.03;;;9.16;100.00
46087;BME280;31824;49.648;8.640;2023-11-21T04:05:45;99706.09;;;9.10;100.00
46087;BME280;31824;49.648;8.640;2023-11-21T04:08:47;99709.19;;;9.06;100.00
46087;BME280;31824;49.648;8.640;2023-11-21T04:11:50;99708.69;;;9.10;100.00
46087;BME280;31824;49.648;8.640;2023-11-21T04:14:52;99719.19;;;9.10;100.00
46087;BME280;31824;49.648;8.640;2023-11-21T04:17:56;99720.47;;;9.05;100.00
46087;BME280;31824;49.648;8.640;2023-11-21T04:20:58;99723.66;;;9.11;100.00
46087;BME280;31824;49.648;8.640;2023-11-21T04:24:00;99723.91;;;9.15;100.00
46087;BME280;31824;49.648;8.640;2023-11-21T04:27:03;99716.81;;;9.13;100.00
46087;BME280;31824;49.648;8.640;2023-11-21T04:30:06;99724.19;;;9.18;100.00
46087;BME280;31824;49.648;8.640;2023-11-21T04:33:08;99723.00;;;9.14;100.00
46087;BME280;31824;49.648;8.640;2023-11-21T04:36:10;99720.53;;;9.16;100.00
46087;BME280;31824;49.648;8.640;2023-11-21T04:39:12;99728.66;;;9.19;100.00
46087;BME280;31824;49.648;8.640;2023-11-21T04:42:15;99732.97;;;9.18;100.00
46087;BME280;31824;49.648;8.640;2023-11-21T04:45:17;99739.00;;;9.17;100.00
46087;BME280;31824;49.648;8.640;2023-11-21T04:48:19;99741.34;;;9.14;100.00
46087;BME280;31824;49.648;8.640;2023-11-21T04:51:21;99746.09;;;9.18;100.00
46087;BME280;31824;49.648;8.640;2023-11-21T04:54:23;99748.47;;;9.25;100.00
46087;BME280;31824;49.648;8.640;2023-11-21T04:57:30;99742.47;;;9.26;100.00
46087;BME280;31824;49.648;8.640;2023-11-21T05:00:32;99750.06;;;9.23;100.00
46087;BME280;31824;49.648;8.640;2023-11-21T05:03:34;99755.00;;;9.20;100.00
46087;BME280;31824;49.648;8.640;2023-11-21T05:06:36;99765.47;;;9.20;100.00
46087;BME280;31824;49.648;8.640;2023-11-21T05:09:41;99760.47;;;9.13;100.00
46087;BME280;31824;49.648;8.640;2023-11-21T05:12:44;99763.09;;;9.13;100.00
46087;BME280;31824;49.648;8.640;2023-11-21T05:15:46;99759.97;;;9.17;100.00
46087;BME280;31824;49.648;8.640;2023-11-21T05:18:48;99765.78;;;9.23;100.00
46087;BME280;31824;49.648;8.640;2023-11-21T05:21:52;99769.31;;;9.24;100.00
46087;BME280;31824;49.648;8.640;2023-11-21T05:24:53;99767.06;;;9.18;100.00
46087;BME280;31824;49.648;8.640;2023-11-21T05:27:56;99766.91;;;9.17;100.00
46087;BME280;31824;49.648;8.640;2023-11-21T05:31:00;99775.81;;;9.19;100.00
46087;BME280;31824;49.648;8.640;2023-11-21T05:34:16;99788.81;;;8.98;100.00
46087;BME280;31824;49.648;8.640;2023-11-21T05:37:19;99791.34;;;9.07;100.00
46087;BME280;31824;49.648;8.640;2023-11-21T05:40:21;99801.25;;;9.20;100.00
46087;BME280;31824;49.648;8.640;2023-11-21T05:43:25;99806.50;;;9.20;100.00
46087;BME280;31824;49.648;8.640;2023-11-21T05:46:27;99803.44;;;9.15;100.00
46087;BME280;31824;49.648;8.640;2023-11-21T05:49:29;99797.53;;;9.07;100.00
46087;BME280;31824;49.648;8.640;2023-11-21T05:52:31;99806.78;;;9.04;100.00
46087;BME280;31824;49.648;8.640;2023-11-21T05:55:34;99805.91;;;9.13;100.00
46087;BME280;31824;49.648;8.640;2023-11-21T05:58:37;99809.91;;;9.19;100.00
46087;BME280;31824;49.648;8.640;2023-11-21T06:01:39;99806.50;;;9.20;100.00
46087;BME280;31824;49.648;8.640;2023-11-21T06:04:40;99813.50;;;9.10;100.00
46087;BME280;31824;49.648;8.640;2023-11-21T06:07:43;99818.63;;;9.09;100.00
46087;BME280;31824;49.648;8.640;2023-11-21T06:10:45;99825.25;;;9.05;100.00
46087;BME280;31824;49.648;8.640;2023-11-21T06:13:48;99821.09;;;9.07;100.00
46087;BME280;31824;49.648;8.640;2023-11-21T06:16:51;99836.19;;;9.10;100.00
46087;BME280;31824;49.648;8.640;2023-11-21T06:19:54;99834.34;;;9.09;100.00
46087;BME280;31824;49.648;8.640;2023-11-21T06:22:56;99834.34;;;9.09;100.00
46087;BME280;31824;49.648;8.640;2023-11-21T06:25:58;99840.94;;;9.14;100.00
46087;BME280;31824;49.648;8.640;2023-11-21T06:29:02;99843.06;;;9.18;100.00
46087;BME280;31824;49.648;8.640;2023-11-21T06:32:05;99846.09;;;9.23;100.00
46087;BME280;31824;49.648;8.640;2023-11-21T06:35:07;99852.28;;;9.23;100.00
46087;BME280;31824;49.648;8.640;2023-11-21T06:38:13;99845.81;;;9.20;100.00
46087;BME280;31824;49.648;8.640;2023-11-21T06:41:15;99856.94;;;9.17;100.00
46087;BME280;31824;49.648;8.640;2023-11-21T06:44:18;99867.13;;;9.14;100.00
46087;BME280;31824;49.648;8.640;2023-11-21T06:47:21;99858.41;;;9.05;100.00
46087;BME280;31824;49.648;8.640;2023-11-21T06:50:23;99868.94;;;8.96;100.00
46087;BME280;31824;49.648;8.640;2023-11-21T06:53:25;99873.78;;;8.91;100.00
46087;BME280;31824;49.648;8.640;2023-11-21T06:56:26;99879.88;;;9.01;100.00
46087;BME280;31824;49.648;8.640;2023-11-21T06:59:30;99889.50;;;8.91;100.00
46087;BME280;31824;49.648;8.640;2023-11-21T07:02:32;99890.41;;;8.92;100.00
46087;BME280;31824;49.648;8.640;2023-11-21T07:05:34;99894.22;;;8.95;100.00
46087;BME280;31824;49.648;8.640;2023-11-21T07:08:35;99900.19;;;8.84;100.00
46087;BME280;31824;49.648;8.640;2023-11-21T07:11:38;99906.31;;;8.85;100.00
46087;BME280;31824;49.648;8.640;2023-11-21T07:14:45;99907.91;;;8.83;100.00
46087;BME280;31824;49.648;8.640;2023-11-21T07:17:47;99909.44;;;8.81;100.00
46087;BME280;31824;49.648;8.640;2023-11-21T07:20:50;99921.47;;;8.78;100.00
46087;BME280;31824;49.648;8.640;2023-11-21T07:23:53;99924.22;;;8.80;100.00
46087;BME280;31824;49.648;8.640;2023-11-21T07:26:55;99932.50;;;8.85;100.00
46087;BME280;31824;49.648;8.640;2023-11-21T07:29:59;99940.38;;;8.85;100.00
46087;BME280;31824;49.648;8.640;2023-11-21T07:33:01;99936.97;;;8.86;100.00
46087;BME280;31824;49.648;8.640;2023-11-21T07:36:03;99932.28;;;9.01;100.00
46087;BME280;31824;49.648;8.640;2023-11-21T07:39:05;99931.78;;;9.05;100.00
46087;BME280;31824;49.648;8.640;2023-11-21T07:42:08;99944.50;;;8.91;100.00
46087;BME280;31824;49.648;8.640;2023-11-21T07:45:12;99943.09;;;8.95;100.00
46087;BME280;31824;49.648;8.640;2023-11-21T07:48:13;99946.91;;;8.99;100.00
46087;BME280;31824;49.648;8.640;2023-11-21T07:51:16;99953.50;;;9.04;100.00
46087;BME280;31824;49.648;8.640;2023-11-21T07:54:18;99954.59;;;9.06;100.00
46087;BME280;31824;49.648;8.640;2023-11-21T07:57:19;99962.59;;;9.07;100.00
46087;BME280;31824;49.648;8.640;2023-11-21T08:00:22;99964.38;;;9.17;100.00
46087;BME280;31824;49.648;8.640;2023-11-21T08:03:25;99962.19;;;9.22;100.00
46087;BME280;31824;49.648;8.640;2023-11-21T08:06:33;99956.31;;;9.24;100.00
46087;BME280;31824;49.648;8.640;2023-11-21T08:09:35;99962.59;;;9.07;100.00
46087;BME280;31824;49.648;8.640;2023-11-21T08:12:37;99968.34;;;8.94;100.00
46087;BME280;31824;49.648;8.640;2023-11-21T08:15:41;99970.50;;;8.99;100.00
46087;BME280;31824;49.648;8.640;2023-11-21T08:18:47;99980.59;;;9.13;100.00
46087;BME280;31824;49.648;8.640;2023-11-21T08:21:49;99978.81;;;9.03;100.00
46087;BME280;31824;49.648;8.640;2023-11-21T08:24:51;99984.06;;;8.94;100.00
46087;BME280;31824;49.648;8.640;2023-11-21T08:27:53;99984.53;;;8.99;100.00
46087;BME280;31824;49.648;8.640;2023-11-21T08:30:56;99987.56;;;9.04;100.00
46087;BME280;31824;49.648;8.640;2023-11-21T08:33:58;99994.38;;;9.02;100.00
46087;BME280;31824;49.648;8.640;2023-11-21T08:37:02;99996.84;;;9.00;100.00
46087;BME280;31824;49.648;8.640;2023-11-21T08:40:05;100002.59;;;9.15;100.00
46087;BME280;31824;49.648;8.640;2023-11-21T08:43:10;100007.91;;;9.06;100.00
46087;BME280;31824;49.648;8.640;2023-11-21T08:46:14;100009.44;;;9.04;100.00
46087;BME280;31824;49.648;8.640;2023-11-21T08:49:16;100018.72;;;9.01;100.00
46087;BME280;31824;49.648;8.640;2023-11-21T08:52:18;100027.03;;;9.05;100.00
46087;BME280;31824;49.648;8.640;2023-11-21T08:55:22;100026.75;;;9.02;100.00
46087;BME280;31824;49.648;8.640;2023-11-21T08:58:24;100033.03;;;9.04;100.00
46087;BME280;31824;49.648;8.640;2023-11-21T09:01:27;100035.50;;;9.03;100.00
46087;BME280;31824;49.648;8.640;2023-11-21T09:04:29;100042.59;;;9.12;100.00
46087;BME280;31824;49.648;8.640;2023-11-21T09:07:31;100036.41;;;9.12;100.00
46087;BME280;31824;49.648;8.640;2023-11-21T09:10:33;100048.09;;;9.16;100.00
46087;BME280;31824;49.648;8.640;2023-11-21T09:13:37;100045.75;;;9.19;100.00
46087;BME280;31824;49.648;8.640;2023-11-21T09:16:40;100049.63;;;9.13;100.00
46087;BME280;31824;49.648;8.640;2023-11-21T09:19:43;100056.44;;;9.11;100.00
46087;BME280;31824;49.648;8.640;2023-11-21T09:22:51;100060.47;;;9.08;100.00
46087;BME280;31824;49.648;8.640;2023-11-21T09:25:53;100060.47;;;9.08;100.00
46087;BME280;31824;49.648;8.640;2023-11-21T09:28:58;100071.88;;;9.08;100.00
46087;BME280;31824;49.648;8.640;2023-11-21T09:32:02;100081.56;;;9.18;100.00
46087;BME280;31824;49.648;8.640;2023-11-21T09:35:05;100088.59;;;9.19;100.00
46087;BME280;31824;49.648;8.640;2023-11-21T09:38:10;100078.25;;;9.29;100.00
46087;BME280;31824;49.648;8.640;2023-11-21T09:41:21;100080.44;;;9.25;100.00
46087;BME280;31824;49.648;8.640;2023-11-21T09:44:32;100085.19;;;9.29;100.00
46087;BME280;31824;49.648;8.640;2023-11-21T09:47:38;100088.94;;;9.22;100.00
46087;BME280;31824;49.648;8.640;2023-11-21T09:50:42;100101.06;;;9.31;100.00
46087;BME280;31824;49.648;8.640;2023-11-21T09:53:46;100096.44;;;9.28;100.00
46087;BME280;31824;49.648;8.640;2023-11-21T09:56:50;100107.69;;;9.36;100.00
46087;BME280;31824;49.648;8.640;2023-11-21T09:59:54;100111.09;;;9.26;100.00
46087;BME280;31824;49.648;8.640;2023-11-21T10:03:02;100113.41;;;9.32;100.00
46087;BME280;31824;49.648;8.640;2023-11-21T10:06:05;100110.31;;;9.36;100.00
46087;BME280;31824;49.648;8.640;2023-11-21T10:09:09;100106.78;;;9.26;100.00
46087;BME280;31824;49.648;8.640;2023-11-21T10:12:15;100112.94;;;9.27;100.00
46087;BME280;31824;49.648;8.640;2023-11-21T10:15:17;100110.78;;;9.32;100.00
46087;BME280;31824;49.648;8.640;2023-11-21T10:18:22;100117.41;;;9.28;100.00
46087;BME280;31824;49.648;8.640;2023-11-21T10:21:26;100118.78;;;9.33;100.00
46087;BME280;31824;49.648;8.640;2023-11-21T10:24:29;100116.59;;;9.38;100.00
46087;BME280;31824;49.648;8.640;2023-11-21T10:27:42;100117.75;;;9.50;100.00
46087;BME280;31824;49.648;8.640;2023-11-21T10:30:44;100115.28;;;9.52;100.00
46087;BME280;31824;49.648;8.640;2023-11-21T10:33:47;100116.03;;;9.59;100.00
46087;BME280;31824;49.648;8.640;2023-11-21T10:36:50;100127.78;;;9.54;100.00
46087;BME280;31824;49.648;8.640;2023-11-21T10:39:57;100126.78;;;9.62;100.00
46087;BME280;31824;49.648;8.640;2023-11-21T10:43:06;100130.16;;;9.70;100.00
46087;BME280;31824;49.648;8.640;2023-11-21T10:46:07;100128.31;;;9.69;100.00
46087;BME280;31824;49.648;8.640;2023-11-21T10:49:12;100125.66;;;9.78;100.00
46087;BME280;31824;49.648;8.640;2023-11-21T10:52:13;100134.63;;;9.71;100.00
46087;BME280;31824;49.648;8.640;2023-11-21T10:55:19;100133.06;;;9.73;100.00
46087;BME280;31824;49.648;8.640;2023-11-21T10:58:26;100132.91;;;9.72;100.00
46087;BME280;31824;49.648;8.640;2023-11-21T11:01:29;100137.41;;;9.73;100.00
46087;BME280;31824;49.648;8.640;2023-11-21T11:04:33;100136.13;;;9.78;100.00
46087;BME280;31824;49.648;8.640;2023-11-21T11:07:42;100141.03;;;9.84;100.00
46087;BME280;31824;49.648;8.640;2023-11-21T11:10:46;100135.78;;;9.84;100.00
46087;BME280;31824;49.648;8.640;2023-11-21T11:13:49;100129.81;;;9.76;100.00
46087;BME280;31824;49.648;8.640;2023-11-21T11:16:53;100136.84;;;9.86;100.00
46087;BME280;31824;49.648;8.640;2023-11-21T11:19:56;100140.47;;;9.96;100.00
46087;BME280;31824;49.648;8.640;2023-11-21T11:23:19;100136.16;;;9.97;100.00
46087;BME280;31824;49.648;8.640;2023-11-21T11:26:34;100139.94;;;10.09;100.00
46087;BME280;31824;49.648;8.640;2023-11-21T11:29:44;100124.97;;;10.27;100.00
46087;BME280;31824;49.648;8.640;2023-11-21T11:32:55;100124.00;;;10.36;100.00
46087;BME280;31824;49.648;8.640;2023-11-21T11:36:05;100117.03;;;10.55;100.00
46087;BME280;31824;49.648;8.640;2023-11-21T11:39:26;100111.75;;;10.74;100.00
46087;BME280;31824;49.648;8.640;2023-11-21T11:42:28;100122.47;;;10.67;100.00
46087;BME280;31824;49.648;8.640;2023-11-21T11:45:33;100131.63;;;10.62;100.00
46087;BME280;31824;49.648;8.640;2023-11-21T11:48:37;100124.03;;;10.65;100.00
46087;BME280;31824;49.648;8.640;2023-11-21T11:51:42;100132.97;;;10.67;100.00
46087;BME280;31824;49.648;8.640;2023-11-21T11:54:44;100130.59;;;10.70;100.00
46087;BME280;31824;49.648;8.640;2023-11-21T11:57:47;100135.06;;;10.61;100.00
46087;BME280;31824;49.648;8.640;2023-11-21T12:00:49;100141.16;;;10.51;100.00
46087;BME280;31824;49.648;8.640;2023-11-21T12:04:25;100143.47;;;10.29;100.00
46087;BME280;31824;49.648;8.640;2023-11-21T12:07:45;100139.09;;;10.38;100.00
46087;BME280;31824;49.648;8.640;2023-11-21T12:10:47;100140.34;;;10.14;100.00
46087;BME280;31824;49.648;8.640;2023-11-21T12:13:50;100140.69;;;10.55;100.00
46087;BME280;31824;49.648;8.640;2023-11-21T12:16:54;100143.66;;;11.48;100.00
46087;BME280;31824;49.648;8.640;2023-11-21T12:20:01;100149.75;;;12.50;100.00
46087;BME280;31824;49.648;8.640;2023-11-21T12:23:07;100155.06;;;12.82;100.00
46087;BME280;31824;49.648;8.640;2023-11-21T12:26:11;100151.13;;;12.77;100.00
46087;BME280;31824;49.648;8.640;2023-11-21T12:29:13;100151.28;;;13.01;100.00
46087;BME280;31824;49.648;8.640;2023-11-21T12:32:14;100136.88;;;12.75;100.00
46087;BME280;31824;49.648;8.640;2023-11-21T12:35:20;100143.19;;;12.24;100.00
46087;BME280;31824;49.648;8.640;2023-11-21T12:38:24;100157.31;;;12.14;100.00
46087;BME280;31824;49.648;8.640;2023-11-21T12:41:26;100159.41;;;12.08;100.00
46087;BME280;31824;49.648;8.640;2023-11-21T12:44:28;100162.25;;;11.91;100.00
46087;BME280;31824;49.648;8.640;2023-11-21T12:47:30;100157.03;;;12.01;100.00
46087;BME280;31824;49.648;8.640;2023-11-21T12:50:34;100163.53;;;11.65;100.00
46087;BME280;31824;49.648;8.640;2023-11-21T12:53:39;100166.59;;;11.20;100.00
46087;BME280;31824;49.648;8.640;2023-11-21T12:56:45;100166.91;;;11.33;100.00
46087;BME280;31824;49.648;8.640;2023-11-21T12:59:48;100171.09;;;11.31;100.00
46087;BME280;31824;49.648;8.640;2023-11-21T13:02:51;100172.09;;;11.23;100.00
46087;BME280;31824;49.648;8.640;2023-11-21T13:05:55;100175.31;;;11.29;100.00
46087;BME280;31824;49.648;8.640;2023-11-21T13:09:01;100176.00;;;11.07;100.00
46087;BME280;31824;49.648;8.640;2023-11-21T13:12:04;100185.81;;;11.00;100.00
46087;BME280;31824;49.648;8.640;2023-11-21T13:15:06;100185.63;;;10.88;100.00
46087;BME280;31824;49.648;8.640;2023-11-21T13:18:09;100186.63;;;10.79;100.00
46087;BME280;31824;49.648;8.640;2023-11-21T13:21:12;100195.97;;;10.76;100.00
46087;BME280;31824;49.648;8.640;2023-11-21T13:24:17;100197.72;;;10.86;100.00
46087;BME280;31824;49.648;8.640;2023-11-21T13:27:19;100199.97;;;10.91;100.00
46087;BME280;31824;49.648;8.640;2023-11-21T13:30:22;100206.38;;;10.85;100.00
46087;BME280;31824;49.648;8.640;2023-11-21T13:33:25;100203.34;;;10.80;100.00
46087;BME280;31824;49.648;8.640;2023-11-21T13:36:29;100210.41;;;10.81;100.00
46087;BME280;31824;49.648;8.640;2023-11-21T13:39:35;100203.47;;;10.81;100.00
46087;BME280;31824;49.648;8.640;2023-11-21T13:42:39;100204.53;;;10.84;100.00
46087;BME280;31824;49.648;8.640;2023-11-21T13:45:43;100206.09;;;10.81;100.00
46087;BME280;31824;49.648;8.640;2023-11-21T13:48:46;100199.41;;;10.85;100.00
46087;BME280;31824;49.648;8.640;2023-11-21T13:51:58;100217.47;;;10.91;100.00
46087;BME280;31824;49.648;8.640;2023-11-21T13:55:03;100221.41;;;10.96;100.00
46087;BME280;31824;49.648;8.640;2023-11-21T13:58:08;100228.16;;;10.84;100.00
46087;BME280;31824;49.648;8.640;2023-11-21T14:01:13;100243.16;;;10.85;100.00
46087;BME280;31824;49.648;8.640;2023-11-21T14:04:35;100246.44;;;10.82;100.00
46087;BME280;31824;49.648;8.640;2023-11-21T14:08:03;100242.81;;;10.71;100.00
46087;BME280;31824;49.648;8.640;2023-11-21T14:11:07;100255.41;;;10.65;100.00
46087;BME280;31824;49.648;8.640;2023-11-21T14:14:09;100252.19;;;10.59;100.00
46087;BME280;31824;49.648;8.640;2023-11-21T14:17:11;100258.06;;;10.56;100.00
46087;BME280;31824;49.648;8.640;2023-11-21T14:20:13;100260.19;;;10.60;100.00
46087;BME280;31824;49.648;8.640;2023-11-21T14:23:18;100259.78;;;10.56;100.00
46087;BME280;31824;49.648;8.640;2023-11-21T14:26:21;100263.41;;;10.47;100.00
46087;BME280;31824;49.648;8.640;2023-11-21T14:29:25;100266.44;;;10.52;100.00
46087;BME280;31824;49.648;8.640;2023-11-21T14:32:28;100258.28;;;10.49;100.00
46087;BME280;31824;49.648;8.640;2023-11-21T14:35:30;100257.91;;;10.36;100.00
46087;BME280;31824;49.648;8.640;2023-11-21T14:38:34;100259.41;;;10.42;100.00
46087;BME280;31824;49.648;8.640;2023-11-21T14:41:37;100260.69;;;10.37;100.00
46087;BME280;31824;49.648;8.640;2023-11-21T14:44:40;100264.88;;;10.26;100.00
46087;BME280;31824;49.648;8.640;2023-11-21T14:47:43;100284.22;;;10.27;100.00
46087;BME280;31824;49.648;8.640;2023-11-21T14:50:50;100282.78;;;10.30;100.00
46087;BME280;31824;49.648;8.640;2023-11-21T14:54:12;100285.31;;;10.20;100.00
46087;BME280;31824;49.648;8.640;2023-11-21T14:57:15;100281.59;;;10.18;100.00
46087;BME280;31824;49.648;8.640;2023-11-21T15:00:20;100281.59;;;10.18;100.00
46087;BME280;31824;49.648;8.640;2023-11-21T15:03:37;100285.81;;;10.16;100.00
46087;BME280;31824;49.648;8.640;2023-11-21T15:06:45;100291.97;;;10.17;100.00
46087;BME280;31824;49.648;8.640;2023-11-21T15:09:48;100290.94;;;10.06;100.00
46087;BME280;31824;49.648;8.640;2023-11-21T15:12:53;100291.16;;;9.99;100.00
46087;BME280;31824;49.648;8.640;2023-11-21T15:15:54;100297.16;;;9.97;100.00
46087;BME280;31824;49.648;8.640;2023-11-21T15:18:56;100301.50;;;9.97;100.00
46087;BME280;31824;49.648;8.640;2023-11-21T15:21:58;100308.91;;;9.92;100.00
46087;BME280;31824;49.648;8.640;2023-11-21T15:25:00;100319.13;;;9.89;100.00
46087;BME280;31824;49.648;8.640;2023-11-21T15:28:10;100304.63;;;9.84;100.00
46087;BME280;31824;49.648;8.640;2023-11-21T15:31:13;100308.81;;;9.82;100.00
46087;BME280;31824;49.648;8.640;2023-11-21T15:34:18;100314.06;;;9.82;100.00
46087;BME280;31824;49.648;8.640;2023-11-21T15:37:20;100321.31;;;9.76;100.00
46087;BME280;31824;49.648;8.640;2023-11-21T15:40:21;100325.34;;;9.72;100.00
46087;BME280;31824;49.648;8.640;2023-11-21T15:43:24;100324.75;;;9.66;100.00
46087;BME280;31824;49.648;8.640;2023-11-21T15:46:30;100323.19;;;9.68;100.00
46087;BME280;31824;49.648;8.640;2023-11-21T15:49:32;100330.91;;;9.67;100.00
46087;BME280;31824;49.648;8.640;2023-11-21T15:52:37;100329.84;;;9.65;100.00
46087;BME280;31824;49.648;8.640;2023-11-21T15:55:58;100332.94;;;9.60;100.00
46087;BME280;31824;49.648;8.640;2023-11-21T15:59:01;100332.81;;;9.59;100.00
46087;BME280;31824;49.648;8.640;2023-11-21T16:05:30;100339.13;;;9.43;100.00
46087;BME280;31824;49.648;8.640;2023-11-21T16:08:32;100345.00;;;9.50;100.00